createdAt,value
2022-10-06T00:00:09.649Z,96154.13
2022-10-06T00:02:38.050Z,96152.16
2022-10-06T00:05:06.875Z,96160.94
2022-10-06T00:07:36.717Z,96163.13
2022-10-06T00:10:06.872Z,96168.03
2022-10-06T00:12:41.370Z,96176.19
2022-10-06T00:15:13.762Z,96169.94
2022-10-06T00:17:43.130Z,96181.06
2022-10-06T00:20:12.027Z,96173.47
2022-10-06T00:22:43.870Z,96173.22
2022-10-06T00:25:14.403Z,96181.09
2022-10-06T00:27:44.651Z,96172.47
2022-10-06T00:30:16.934Z,96182.50
2022-10-06T00:32:53.783Z,96188.19
2022-10-06T00:35:23.504Z,96148.78
2022-10-06T00:37:51.842Z,96183.63
2022-10-06T00:40:20.851Z,96194.72
2022-10-06T00:42:55.917Z,96167.25
2022-10-06T00:45:31.170Z,96174.88
2022-10-06T00:48:03.105Z,96191.78
2022-10-06T00:50:32.466Z,96170.22
2022-10-06T00:53:01.403Z,96189.66
2022-10-06T00:55:31.177Z,96212.72
2022-10-06T00:58:00.205Z,96210.00
2022-10-06T01:00:30.812Z,96205.69
2022-10-06T01:03:03.524Z,96200.28
2022-10-06T01:05:34.731Z,96204.59
2022-10-06T01:08:03.262Z,96215.16
2022-10-06T01:10:31.666Z,96214.34
2022-10-06T01:13:00.468Z,96207.28
2022-10-06T01:15:31.073Z,96200.84
2022-10-06T01:18:05.737Z,96195.97
2022-10-06T01:20:36.991Z,96200.34
2022-10-06T01:23:10.339Z,96133.97
2022-10-06T01:25:39.335Z,96203.09
2022-10-06T01:28:10.739Z,96225.31
2022-10-06T01:30:46.163Z,96210.44
2022-10-06T01:33:15.022Z,96208.00
2022-10-06T01:35:44.120Z,96219.66
2022-10-06T01:38:14.179Z,96222.38
2022-10-06T01:40:42.889Z,96225.06
2022-10-06T01:43:11.164Z,96220.47
2022-10-06T01:45:40.440Z,96218.84
2022-10-06T01:48:09.950Z,96197.81
2022-10-06T01:50:38.445Z,96220.47
2022-10-06T01:53:06.760Z,96227.25
2022-10-06T01:55:36.708Z,96185.38
2022-10-06T01:58:05.086Z,96220.56
2022-10-06T02:00:33.911Z,96231.81
2022-10-06T02:03:02.332Z,96235.63
2022-10-06T02:05:30.866Z,96250.78
2022-10-06T02:07:59.552Z,96216.47
2022-10-06T02:10:28.031Z,96242.09
2022-10-06T02:12:57.863Z,96242.63
2022-10-06T02:15:27.146Z,96200.53
2022-10-06T02:17:56.620Z,96246.66
2022-10-06T02:20:25.007Z,96242.88
2022-10-06T02:22:53.375Z,96242.06
2022-10-06T02:25:22.437Z,96257.25
2022-10-06T02:27:50.790Z,96249.94
2022-10-06T02:30:20.799Z,96252.09
2022-10-06T02:32:49.230Z,96252.09
2022-10-06T02:35:17.687Z,96253.97
2022-10-06T02:37:46.192Z,96231.31
2022-10-06T02:40:16.454Z,96271.88
2022-10-06T02:42:46.074Z,96276.19
2022-10-06T02:45:14.527Z,96265.06
2022-10-06T02:47:44.483Z,96272.91
2022-10-06T02:50:13.887Z,96226.50
2022-10-06T02:52:43.126Z,96285.91
2022-10-06T02:55:11.715Z,96283.72
2022-10-06T02:57:40.181Z,96285.91
2022-10-06T03:00:09.968Z,96295.09
2022-10-06T03:02:38.490Z,96304.88
2022-10-06T03:05:09.287Z,96314.13
2022-10-06T03:07:37.603Z,96311.66
2022-10-06T03:10:06.787Z,96287.34
2022-10-06T03:12:35.483Z,96314.13
2022-10-06T03:15:03.842Z,96328.75
2022-10-06T03:17:32.233Z,96319.53
2022-10-06T03:20:00.724Z,96322.75
2022-10-06T03:22:30.599Z,96320.06
2022-10-06T03:24:59.234Z,96305.72
2022-10-06T03:27:27.558Z,96333.06
2022-10-06T03:29:55.911Z,96338.19
2022-10-06T03:32:24.310Z,96335.47
2022-10-06T03:34:53.727Z,96339.81
2022-10-06T03:37:22.983Z,96346.56
2022-10-06T03:39:52.785Z,96342.81
2022-10-06T03:42:21.047Z,96343.03
2022-10-06T03:44:49.425Z,96347.69
2022-10-06T03:47:17.852Z,96353.66
2022-10-06T03:49:46.280Z,96352.53
2022-10-06T03:52:14.919Z,96355.81
2022-10-06T03:54:43.258Z,96364.75
2022-10-06T03:57:13.044Z,96367.19
2022-10-06T03:59:42.760Z,96376.16
2022-10-06T04:02:11.616Z,96347.19
2022-10-06T04:04:40.171Z,96376.69
2022-10-06T04:07:08.560Z,96382.38
2022-10-06T04:09:37.928Z,96296.97
2022-10-06T04:12:06.305Z,96393.22
2022-10-06T04:14:36.706Z,96380.84
2022-10-06T04:17:05.175Z,96399.72
2022-10-06T04:19:33.843Z,96404.56
2022-10-06T04:22:02.549Z,96422.22
2022-10-06T04:24:30.907Z,96421.94
2022-10-06T04:27:19.658Z,96420.94
2022-10-06T04:29:49.459Z,96422.56
2022-10-06T04:32:17.770Z,96426.63
2022-10-06T04:34:46.228Z,96434.22
2022-10-06T04:37:14.831Z,96440.47
2022-10-06T04:39:43.242Z,96442.66
2022-10-06T04:42:11.550Z,96413.44
2022-10-06T04:44:40.011Z,96447.00
2022-10-06T04:47:10.456Z,96451.88
2022-10-06T04:49:38.851Z,96449.75
2022-10-06T04:52:10.340Z,96460.00
2022-10-06T04:54:38.858Z,96469.75
2022-10-06T04:57:07.624Z,96474.38
2022-10-06T04:59:53.342Z,96480.63
2022-10-06T05:02:23.112Z,96484.97
2022-10-06T05:04:51.844Z,96493.63
2022-10-06T05:07:20.130Z,96492.56
2022-10-06T05:09:48.533Z,96508.53
2022-10-06T05:12:16.807Z,96505.81
2022-10-06T05:14:47.063Z,96507.19
2022-10-06T05:17:15.678Z,96508.53
2022-10-06T05:19:45.590Z,96514.50
2022-10-06T05:22:14.167Z,96522.59
2022-10-06T05:24:42.556Z,96538.03
2022-10-06T05:27:10.838Z,96534.28
2022-10-06T05:29:39.442Z,96533.47
2022-10-06T05:32:08.029Z,96547.28
2022-10-06T05:34:36.402Z,96555.94
2022-10-06T05:37:08.180Z,96558.06
2022-10-06T05:39:37.133Z,96568.34
2022-10-06T05:42:05.757Z,96555.59
2022-10-06T05:44:34.331Z,96570.19
2022-10-06T05:47:02.904Z,96580.19
2022-10-06T05:49:31.419Z,96574.19
2022-10-06T05:51:59.746Z,96580.91
2022-10-06T05:54:29.529Z,96586.63
2022-10-06T05:56:58.078Z,96594.44
2022-10-06T05:59:27.283Z,96591.44
2022-10-06T06:01:55.685Z,96601.19
2022-10-06T06:04:24.168Z,96601.97
2022-10-06T06:06:52.450Z,96614.94
2022-10-06T06:09:22.923Z,96583.75
2022-10-06T06:11:54.339Z,96611.69
2022-10-06T06:14:44.103Z,96619.00
2022-10-06T06:17:11.667Z,96636.06
2022-10-06T06:19:40.244Z,96602.41
2022-10-06T06:22:08.562Z,96651.22
2022-10-06T06:24:36.861Z,96648.75
2022-10-06T06:27:06.619Z,96658.50
2022-10-06T06:29:34.968Z,96662.75
2022-10-06T06:32:03.548Z,96678.41
2022-10-06T06:34:32.051Z,96678.81
2022-10-06T06:37:06.767Z,96688.56
2022-10-06T06:39:38.177Z,96698.25
2022-10-06T06:42:08.697Z,96699.78
2022-10-06T06:44:37.076Z,96692.25
2022-10-06T06:47:05.455Z,96703.06
2022-10-06T06:49:34.108Z,96689.03
2022-10-06T06:52:04.835Z,96719.16
2022-10-06T06:54:33.147Z,96683.81
2022-10-06T06:57:01.486Z,96710.63
2022-10-06T06:59:34.213Z,96729.91
2022-10-06T07:02:03.579Z,96708.31
2022-10-06T07:04:33.054Z,96740.63
2022-10-06T07:07:01.466Z,96738.03
2022-10-06T07:09:29.858Z,96738.41
2022-10-06T07:11:58.653Z,96747.88
2022-10-06T07:14:27.238Z,96740.91
2022-10-06T07:17:14.086Z,96753.34
2022-10-06T07:19:59.498Z,96767.16
2022-10-06T07:22:47.654Z,96750.28
2022-10-06T07:25:25.598Z,96766.28
2022-10-06T07:27:54.468Z,96728.09
2022-10-06T07:30:25.897Z,96779.78
2022-10-06T07:32:56.631Z,96711.72
2022-10-06T07:35:25.968Z,96784.44
2022-10-06T07:37:54.497Z,96781.28
2022-10-06T07:40:23.278Z,96738.94
2022-10-06T07:42:53.123Z,96791.41
2022-10-06T07:45:41.638Z,96794.34
2022-10-06T07:48:15.560Z,96796.28
2022-10-06T07:50:44.213Z,96810.44
2022-10-06T07:53:13.150Z,96799.91
2022-10-06T07:55:45.511Z,96806.06
2022-10-06T07:58:14.825Z,96817.69
2022-10-06T08:00:43.830Z,96818.16
2022-10-06T08:03:18.519Z,96824.06
2022-10-06T08:05:47.631Z,96831.66
2022-10-06T08:08:16.923Z,96834.91
2022-10-06T08:10:53.331Z,96831.19
2022-10-06T08:13:21.912Z,96829.13
2022-10-06T08:15:51.450Z,96830.75
2022-10-06T08:18:44.455Z,96839.66
2022-10-06T08:21:15.079Z,96844.81
2022-10-06T08:23:44.261Z,96841.56
2022-10-06T08:26:13.909Z,96848.94
2022-10-06T08:28:46.477Z,96849.84
2022-10-06T08:31:16.154Z,96860.41
2022-10-06T08:33:47.119Z,96861.25
2022-10-06T08:36:18.760Z,96866.69
2022-10-06T08:38:50.408Z,96861.03
2022-10-06T08:41:24.450Z,96867.25
2022-10-06T08:44:00.824Z,96865.91
2022-10-06T08:46:36.355Z,96863.19
2022-10-06T08:49:07.079Z,96868.88
2022-10-06T08:51:53.633Z,96872.16
2022-10-06T08:54:31.186Z,96870.00
2022-10-06T08:57:08.678Z,96859.34
2022-10-06T08:59:38.063Z,96883.56
2022-10-06T09:02:23.027Z,96881.72
2022-10-06T09:04:53.309Z,96885.00
2022-10-06T09:07:29.642Z,96885.59
2022-10-06T09:10:12.426Z,96887.53
2022-10-06T09:12:45.466Z,96895.38
2022-10-06T09:15:31.179Z,96897.84
2022-10-06T09:18:08.595Z,96891.91
2022-10-06T09:20:43.792Z,96799.22
2022-10-06T09:23:17.044Z,96894.44
2022-10-06T09:25:45.387Z,96899.03
2022-10-06T09:28:16.915Z,96890.69
2022-10-06T09:30:45.237Z,96891.28
2022-10-06T09:33:21.055Z,96858.13
2022-10-06T09:36:09.533Z,96900.25
2022-10-06T09:38:49.375Z,96898.06
2022-10-06T09:41:18.669Z,96903.56
2022-10-06T09:44:00.562Z,96869.28
2022-10-06T09:46:32.931Z,96899.84
2022-10-06T09:49:18.344Z,96901.53
2022-10-06T09:52:12.586Z,96903.50
2022-10-06T09:54:42.359Z,96910.34
2022-10-06T09:57:16.182Z,96913.09
2022-10-06T09:59:46.507Z,96919.16
2022-10-06T10:02:37.426Z,96927.84
2022-10-06T10:05:08.760Z,96927.00
2022-10-06T10:07:38.730Z,96929.75
2022-10-06T10:10:21.723Z,96928.44
2022-10-06T10:12:54.443Z,96920.25
2022-10-06T10:15:29.501Z,96929.53
2022-10-06T10:18:00.164Z,96932.53
2022-10-06T10:20:34.435Z,96928.50
2022-10-06T10:23:08.487Z,96922.84
2022-10-06T10:25:56.323Z,96914.94
2022-10-06T10:28:51.044Z,96936.16
2022-10-06T10:31:31.475Z,96920.97
2022-10-06T10:34:24.836Z,96938.38
2022-10-06T10:36:58.004Z,96940.53
2022-10-06T10:39:34.920Z,96931.31
2022-10-06T10:42:08.799Z,96924.25
2022-10-06T10:44:43.279Z,96941.38
2022-10-06T10:47:17.915Z,96939.75
2022-10-06T10:49:54.448Z,96944.91
2022-10-06T10:52:28.077Z,96938.13
2022-10-06T10:55:04.764Z,96936.78
2022-10-06T10:57:40.131Z,96923.22
2022-10-06T11:00:16.214Z,96930.53
2022-10-06T11:02:45.838Z,96932.44
2022-10-06T11:05:17.827Z,96925.91
2022-10-06T11:07:53.203Z,96867.53
2022-10-06T11:10:27.495Z,96932.94
2022-10-06T11:13:09.428Z,96920.47
2022-10-06T11:15:52.754Z,96933.50
2022-10-06T11:18:35.627Z,96936.19
2022-10-06T11:21:11.764Z,96936.16
2022-10-06T11:23:51.554Z,96941.03
2022-10-06T11:26:42.206Z,96946.47
2022-10-06T11:29:27.179Z,96924.78
2022-10-06T11:32:04.027Z,96936.41
2022-10-06T11:34:32.448Z,96887.28
2022-10-06T11:37:09.498Z,96926.59
2022-10-06T11:39:47.859Z,96927.41
2022-10-06T11:42:27.185Z,96924.13
2022-10-06T11:45:01.428Z,96922.75
2022-10-06T11:47:35.592Z,96923.84
2022-10-06T11:50:33.412Z,96920.84
2022-10-06T11:53:02.193Z,96927.38
2022-10-06T11:55:31.191Z,96923.78
2022-10-06T11:58:37.440Z,96926.47
2022-10-06T12:01:02.522Z,96930.81
2022-10-06T12:03:47.847Z,96933.75
2022-10-06T12:06:53.584Z,96927.50
2022-10-06T12:09:46.285Z,96921.75
2022-10-06T12:13:01.884Z,96928.78
2022-10-06T12:17:06.084Z,96931.84
2022-10-06T12:19:02.379Z,96928.31
2022-10-06T12:21:45.047Z,96931.28
2022-10-06T12:24:29.323Z,96930.72
2022-10-06T12:27:23.409Z,96928.78
2022-10-06T12:30:01.897Z,96929.56
2022-10-06T12:32:47.845Z,96924.69
2022-10-06T12:35:30.927Z,96923.59
2022-10-06T12:38:04.908Z,96927.78
2022-10-06T12:40:48.921Z,96920.19
2022-10-06T12:43:58.208Z,96924.03
2022-10-06T12:46:45.255Z,96918.88
2022-10-06T12:49:44.467Z,96913.69
2022-10-06T12:52:44.682Z,96916.44
2022-10-06T12:55:28.774Z,96875.19
2022-10-06T12:57:57.466Z,96911.53
2022-10-06T13:00:33.359Z,96914.53
2022-10-06T13:03:06.413Z,96842.34
2022-10-06T13:05:38.849Z,96918.34
2022-10-06T13:08:08.768Z,96852.69
2022-10-06T13:10:37.273Z,96915.06
2022-10-06T13:13:24.480Z,96916.97
2022-10-06T13:15:56.168Z,96915.81
2022-10-06T13:18:25.069Z,96911.72
2022-10-06T13:20:56.378Z,96914.69
2022-10-06T13:23:27.748Z,96910.06
2022-10-06T13:25:59.140Z,96899.56
2022-10-06T13:28:46.093Z,96893.56
2022-10-06T13:31:21.209Z,96917.19
2022-10-06T13:33:53.408Z,96918.28
2022-10-06T13:36:24.172Z,96914.50
2022-10-06T13:38:53.521Z,96914.25
2022-10-06T13:41:28.725Z,96905.50
2022-10-06T13:44:00.952Z,96910.44
2022-10-06T13:46:32.332Z,96907.19
2022-10-06T13:49:04.274Z,96908.31
2022-10-06T13:51:34.532Z,96915.38
2022-10-06T13:54:07.767Z,96917.56
2022-10-06T13:56:39.100Z,96917.00
2022-10-06T13:59:27.783Z,96915.38
2022-10-06T14:01:56.696Z,96914.84
2022-10-06T14:04:25.557Z,96915.69
2022-10-06T14:07:00.137Z,96918.41
2022-10-06T14:09:32.735Z,96911.03
2022-10-06T14:12:07.066Z,96918.97
2022-10-06T14:14:35.999Z,96911.66
2022-10-06T14:17:04.888Z,96919.53
2022-10-06T14:19:38.989Z,96910.00
2022-10-06T14:22:32.695Z,96908.69
2022-10-06T14:25:01.472Z,96915.25
2022-10-06T14:27:30.024Z,96869.91
2022-10-06T14:29:59.229Z,96911.19
2022-10-06T14:32:28.367Z,96914.16
2022-10-06T14:34:57.215Z,96914.16
2022-10-06T14:37:26.979Z,96917.19
2022-10-06T14:39:56.218Z,96911.19
2022-10-06T14:42:24.887Z,96903.59
2022-10-06T14:44:53.631Z,96863.75
2022-10-06T14:47:21.941Z,96915.03
2022-10-06T14:49:50.251Z,96910.69
2022-10-06T14:52:19.936Z,96916.69
2022-10-06T14:54:49.775Z,96922.13
2022-10-06T14:57:18.140Z,96912.06
2022-10-06T14:59:46.491Z,96911.25
2022-10-06T15:02:14.835Z,96906.66
2022-10-06T15:04:43.194Z,96905.00
2022-10-06T15:07:28.675Z,96904.19
2022-10-06T15:09:58.508Z,96916.13
2022-10-06T15:12:29.465Z,96915.59
2022-10-06T15:15:01.477Z,96916.13
2022-10-06T15:17:30.308Z,96919.63
2022-10-06T15:19:58.667Z,96916.13
2022-10-06T15:22:27.099Z,96920.44
2022-10-06T15:24:55.798Z,96898.16
2022-10-06T15:27:48.547Z,96866.13
2022-10-06T15:30:17.398Z,96919.88
2022-10-06T15:32:45.660Z,96925.03
2022-10-06T15:35:14.010Z,96929.91
2022-10-06T15:37:42.760Z,96925.28
2022-10-06T15:40:11.846Z,96926.34
2022-10-06T15:42:41.972Z,96862.38
2022-10-06T15:45:11.668Z,96924.44
2022-10-06T15:47:40.246Z,96832.00
2022-10-06T15:50:09.711Z,96895.00
2022-10-06T15:52:38.303Z,96923.03
2022-10-06T15:55:07.197Z,96929.47
2022-10-06T15:57:35.842Z,96931.06
2022-10-06T16:00:07.956Z,96922.38
2022-10-06T16:02:36.695Z,96896.25
2022-10-06T16:05:45.315Z,96924.75
2022-10-06T16:08:13.848Z,96912.81
2022-10-06T16:10:42.216Z,96919.84
2022-10-06T16:13:10.579Z,96891.00
2022-10-06T16:15:40.763Z,96915.22
2022-10-06T16:18:09.675Z,96890.97
2022-10-06T16:20:38.082Z,96925.97
2022-10-06T16:23:07.228Z,96919.66
2022-10-06T16:25:35.684Z,96918.78
2022-10-06T16:28:04.348Z,96926.28
2022-10-06T16:30:33.237Z,96920.75
2022-10-06T16:33:03.384Z,96928.28
2022-10-06T16:35:31.952Z,96928.25
2022-10-06T16:38:00.632Z,96925.25
2022-10-06T16:40:29.555Z,96921.91
2022-10-06T16:42:58.518Z,96925.09
2022-10-06T16:45:27.235Z,96927.78
2022-10-06T16:48:00.459Z,96897.09
2022-10-06T16:50:30.589Z,96932.25
2022-10-06T16:52:59.302Z,96911.75
2022-10-06T16:55:27.789Z,96939.19
2022-10-06T16:57:56.495Z,96867.78
2022-10-06T17:00:26.245Z,96945.53
2022-10-06T17:02:55.382Z,96874.16
2022-10-06T17:05:24.191Z,96940.81
2022-10-06T17:07:58.952Z,96946.50
2022-10-06T17:10:28.353Z,96946.41
2022-10-06T17:12:56.956Z,96883.22
2022-10-06T17:15:25.793Z,96947.44
2022-10-06T17:17:56.231Z,96938.03
2022-10-06T17:20:24.586Z,96951.91
2022-10-06T17:22:54.567Z,96953.19
2022-10-06T17:25:23.442Z,96953.16
2022-10-06T17:27:52.130Z,96962.25
2022-10-06T17:30:20.559Z,96956.22
2022-10-06T17:32:48.964Z,96930.75
2022-10-06T17:35:20.256Z,96963.78
2022-10-06T17:37:50.438Z,96963.16
2022-10-06T17:40:20.290Z,96963.38
2022-10-06T17:42:49.197Z,96903.34
2022-10-06T17:45:21.292Z,96941.44
2022-10-06T17:47:51.902Z,96966.94
2022-10-06T17:50:20.246Z,96969.09
2022-10-06T17:52:49.082Z,96925.75
2022-10-06T17:55:17.838Z,96981.16
2022-10-06T17:57:47.755Z,96971.19
2022-10-06T18:00:18.327Z,96956.97
2022-10-06T18:02:46.740Z,96879.47
2022-10-06T18:05:15.398Z,96969.34
2022-10-06T18:07:44.438Z,96980.53
2022-10-06T18:10:30.074Z,96973.44
2022-10-06T18:13:01.200Z,96971.13
2022-10-06T18:15:31.216Z,96961.47
2022-10-06T18:18:00.981Z,96972.69
2022-10-06T18:20:38.515Z,96975.28
2022-10-06T18:23:09.292Z,96978.81
2022-10-06T18:25:39.347Z,96985.72
2022-10-06T18:28:10.505Z,96980.81
2022-10-06T18:30:40.436Z,96966.09
2022-10-06T18:36:16.147Z,96971.84
2022-10-06T18:38:47.492Z,96942.28
2022-10-06T18:41:18.711Z,96973.59
2022-10-06T18:43:48.879Z,96971.63
2022-10-06T18:46:36.201Z,96974.25
2022-10-06T18:49:10.827Z,96970.66
2022-10-06T18:51:41.619Z,96971.94
2022-10-06T18:54:12.483Z,96975.69
2022-10-06T18:56:42.056Z,96977.00
2022-10-06T18:59:14.183Z,96978.53
2022-10-06T19:01:45.237Z,96970.59
2022-10-06T19:04:15.735Z,96972.72
2022-10-06T19:06:54.448Z,96974.03
2022-10-06T19:09:24.745Z,96944.72
2022-10-06T19:11:56.765Z,96973.94
2022-10-06T19:14:29.989Z,96986.75
2022-10-06T19:17:00.966Z,96979.63
2022-10-06T19:19:30.928Z,96981.75
2022-10-06T19:22:00.770Z,96977.06
2022-10-06T19:24:32.978Z,96980.22
2022-10-06T19:27:04.055Z,96935.53
2022-10-06T19:29:37.203Z,96971.09
2022-10-06T19:32:07.356Z,96963.25
2022-10-06T19:34:37.715Z,96920.69
2022-10-06T19:37:06.732Z,96962.94
2022-10-06T19:39:40.362Z,96966.78
2022-10-06T19:42:26.466Z,96958.97
2022-10-06T19:44:56.387Z,96969.84
2022-10-06T19:47:25.247Z,96972.53
2022-10-06T19:49:58.865Z,96981.09
2022-10-06T19:52:31.472Z,96936.84
2022-10-06T19:55:01.045Z,96985.91
2022-10-06T19:57:31.325Z,96984.00
2022-10-06T20:00:01.286Z,96990.22
2022-10-06T20:02:30.223Z,96986.13
2022-10-06T20:04:58.769Z,96981.22
2022-10-06T20:07:28.031Z,96982.03
2022-10-06T20:09:57.102Z,96982.84
2022-10-06T20:12:27.120Z,96974.53
2022-10-06T20:14:55.879Z,96988.22
2022-10-06T20:17:26.530Z,96941.22
2022-10-06T20:19:57.886Z,97000.88
2022-10-06T20:22:27.132Z,96978.63
2022-10-06T20:24:55.756Z,96969.97
2022-10-06T20:27:24.056Z,96990.00
2022-10-06T20:29:52.403Z,96966.34
2022-10-06T20:32:21.527Z,96942.44
2022-10-06T20:34:51.714Z,97018.13
2022-10-06T20:37:20.314Z,97000.84
2022-10-06T20:40:06.079Z,96989.47
2022-10-06T20:42:34.659Z,96995.09
2022-10-06T20:45:03.101Z,96993.44
2022-10-06T20:47:31.429Z,96963.13
2022-10-06T20:50:01.215Z,97002.22
2022-10-06T20:52:29.911Z,96996.72
2022-10-06T20:54:58.298Z,96990.97
2022-10-06T20:57:33.635Z,96985.22
2022-10-06T21:00:02.282Z,96987.94
2022-10-06T21:02:32.209Z,96992.00
2022-10-06T21:05:02.435Z,96979.84
2022-10-06T21:07:30.768Z,96977.34
2022-10-06T21:09:59.151Z,96972.22
2022-10-06T21:12:28.522Z,96981.69
2022-10-06T21:14:57.606Z,96981.69
2022-10-06T21:17:26.212Z,96980.50
2022-10-06T21:19:54.955Z,96971.84
2022-10-06T21:22:24.656Z,96975.00
2022-10-06T21:24:53.003Z,96975.25
2022-10-06T21:27:21.247Z,96977.78
2022-10-06T21:29:50.148Z,96971.63
2022-10-06T21:32:18.800Z,96967.84
2022-10-06T21:34:47.705Z,96961.66
2022-10-06T21:37:15.972Z,96959.59
2022-10-06T21:39:46.287Z,96966.25
2022-10-06T21:42:14.784Z,96940.47
2022-10-06T21:44:43.108Z,96965.84
2022-10-06T21:47:11.399Z,96960.66
2022-10-06T21:49:39.810Z,96953.31
2022-10-06T21:52:08.143Z,96954.34
2022-10-06T21:54:38.119Z,96963.22
2022-10-06T21:57:08.226Z,96949.41
2022-10-06T21:59:36.581Z,96948.44
2022-10-06T22:02:05.014Z,96900.56
2022-10-06T22:04:33.336Z,96951.09
2022-10-06T22:07:02.004Z,96918.88
2022-10-06T22:09:30.708Z,96933.78
2022-10-06T22:11:59.035Z,96937.06
2022-10-06T22:14:29.352Z,96920.41
2022-10-06T22:16:57.643Z,96940.03
2022-10-06T22:19:26.231Z,96934.09
2022-10-06T22:21:55.765Z,96929.75
2022-10-06T22:24:24.944Z,96927.53
2022-10-06T22:26:53.220Z,96932.09
2022-10-06T22:29:22.183Z,96930.22
2022-10-06T22:31:52.221Z,96931.16
2022-10-06T22:34:21.839Z,96933.91
2022-10-06T22:36:50.104Z,96907.97
2022-10-06T22:39:18.851Z,96935.25
2022-10-06T22:41:47.193Z,96945.16
2022-10-06T22:44:15.447Z,96919.34
2022-10-06T22:46:44.271Z,96926.00
2022-10-06T22:49:14.067Z,96920.25
2022-10-06T22:51:42.428Z,96924.00
2022-10-06T22:54:18.352Z,96922.34
2022-10-06T22:56:47.053Z,96917.44
2022-10-06T22:59:15.403Z,96908.78
2022-10-06T23:01:44.083Z,96915.19
2022-10-06T23:04:14.100Z,96911.69
2022-10-06T23:06:42.428Z,96909.25
2022-10-06T23:09:10.744Z,96902.03
2022-10-06T23:11:39.580Z,96901.41
2022-10-06T23:14:07.871Z,96895.25
2022-10-06T23:16:36.448Z,96893.97
2022-10-06T23:19:04.839Z,96886.13
2022-10-06T23:21:34.513Z,96882.63
2022-10-06T23:24:02.900Z,96881.22
2022-10-06T23:26:33.513Z,96839.13
2022-10-06T23:29:04.023Z,96876.41
2022-10-06T23:31:32.401Z,96885.94
2022-10-06T23:34:00.796Z,96887.19
2022-10-06T23:36:29.131Z,96882.28
2022-10-06T23:38:58.839Z,96878.97
2022-10-06T23:41:27.601Z,96822.53
2022-10-06T23:43:55.943Z,96879.47
2022-10-06T23:46:24.492Z,96876.84
2022-10-06T23:48:52.839Z,96881.59
2022-10-06T23:51:21.276Z,96874.97
2022-10-06T23:53:49.648Z,96870.41
2022-10-06T23:56:20.899Z,96867.53
2022-10-06T23:58:49.398Z,96835.78
